createdAt,value
2023-04-19T00:02:18.537Z,62.35
2023-04-19T00:05:22.613Z,63.49
2023-04-19T00:08:25.858Z,62.61
2023-04-19T00:11:29.820Z,62.96
2023-04-19T00:14:32.492Z,62.90
2023-04-19T00:17:35.558Z,63.15
2023-04-19T00:20:39.652Z,63.39
2023-04-19T00:23:42.300Z,63.27
2023-04-19T00:26:46.234Z,63.55
2023-04-19T00:29:48.806Z,63.26
2023-04-19T00:32:51.359Z,63.17
2023-04-19T00:35:53.989Z,63.57
2023-04-19T00:38:56.603Z,63.81
2023-04-19T00:42:01.283Z,63.45
2023-04-19T00:45:03.984Z,63.97
2023-04-19T00:48:07.012Z,63.19
2023-04-19T00:51:10.670Z,63.93
2023-04-19T00:54:13.708Z,63.53
2023-04-19T00:57:17.802Z,64.45
2023-04-19T01:00:20.909Z,64.35
2023-04-19T01:03:23.559Z,63.44
2023-04-19T01:06:27.852Z,63.39
2023-04-19T01:09:30.937Z,63.13
2023-04-19T01:12:34.998Z,63.39
2023-04-19T01:15:41.083Z,63.79
2023-04-19T01:18:43.583Z,64.06
2023-04-19T01:21:46.312Z,64.61
2023-04-19T01:24:50.350Z,64.32
2023-04-19T01:27:52.820Z,63.93
2023-04-19T01:30:55.443Z,64.11
2023-04-19T01:33:58.110Z,64.59
2023-04-19T01:37:00.881Z,64.38
2023-04-19T01:40:05.474Z,64.47
2023-04-19T01:43:08.292Z,64.42
2023-04-19T01:46:10.881Z,64.36
2023-04-19T01:49:13.460Z,64.65
2023-04-19T01:52:16.016Z,64.26
2023-04-19T01:55:20.185Z,64.29
2023-04-19T01:58:22.696Z,64.58
2023-04-19T02:01:25.583Z,64.86
2023-04-19T02:04:28.170Z,64.43
2023-04-19T02:07:30.680Z,65.48
2023-04-19T02:10:34.631Z,65.68
2023-04-19T02:13:37.286Z,65.41
2023-04-19T02:16:39.820Z,65.22
2023-04-19T02:19:42.525Z,65.30
2023-04-19T02:22:45.111Z,65.31
2023-04-19T02:25:48.989Z,66.01
2023-04-19T02:28:51.995Z,65.53
2023-04-19T02:31:54.565Z,66.02
2023-04-19T02:34:57.119Z,66.02
2023-04-19T02:38:00.270Z,65.68
2023-04-19T02:41:04.467Z,66.22
2023-04-19T02:44:07.203Z,65.96
2023-04-19T02:47:09.748Z,66.35
2023-04-19T02:50:12.275Z,66.11
2023-04-19T02:53:14.814Z,66.02
2023-04-19T02:56:18.843Z,66.64
2023-04-19T02:59:21.425Z,65.72
2023-04-19T03:02:24.409Z,66.15
2023-04-19T03:05:27.637Z,66.49
2023-04-19T03:08:30.530Z,67.17
2023-04-19T03:11:35.716Z,67.72
2023-04-19T03:14:38.482Z,66.82
2023-04-19T03:17:41.178Z,66.55
2023-04-19T03:20:43.863Z,66.93
2023-04-19T03:23:46.387Z,67.46
2023-04-19T03:26:50.516Z,67.05
2023-04-19T03:29:53.343Z,67.25
2023-04-19T03:32:55.909Z,66.77
2023-04-19T03:35:58.464Z,67.90
2023-04-19T03:39:00.979Z,67.05
2023-04-19T03:42:05.240Z,68.03
2023-04-19T03:45:08.614Z,67.89
2023-04-19T03:48:11.241Z,68.48
2023-04-19T03:51:15.854Z,69.26
2023-04-19T03:54:18.366Z,69.47
2023-04-19T03:57:22.426Z,69.36
2023-04-19T04:00:26.299Z,69.84
2023-04-19T04:03:28.984Z,69.54
2023-04-19T04:06:32.232Z,69.85
2023-04-19T04:09:35.044Z,69.82
2023-04-19T04:12:38.989Z,69.89
2023-04-19T04:15:42.924Z,70.80
2023-04-19T04:18:45.555Z,71.71
2023-04-19T04:21:49.155Z,72.19
2023-04-19T04:24:53.957Z,72.10
2023-04-19T04:27:57.980Z,71.26
2023-04-19T04:31:00.688Z,70.23
2023-04-19T04:34:03.471Z,70.98
2023-04-19T04:37:07.628Z,71.45
2023-04-19T04:40:11.657Z,71.38
2023-04-19T04:43:15.550Z,71.10
2023-04-19T04:46:18.338Z,71.61
2023-04-19T04:49:21.026Z,72.00
2023-04-19T04:52:23.655Z,72.18
2023-04-19T04:55:26.297Z,70.80
2023-04-19T04:58:30.404Z,69.38
2023-04-19T05:01:33.058Z,68.82
2023-04-19T05:04:35.859Z,68.20
2023-04-19T05:07:38.546Z,67.57
2023-04-19T05:10:41.199Z,67.08
2023-04-19T05:13:45.364Z,66.63
2023-04-19T05:16:48.128Z,66.52
2023-04-19T05:19:51.035Z,66.77
2023-04-19T05:22:58.287Z,66.11
2023-04-19T05:26:00.832Z,66.09
2023-04-19T05:29:04.944Z,66.02
2023-04-19T05:32:08.029Z,65.95
2023-04-19T05:35:11.449Z,65.77
2023-04-19T05:38:14.116Z,65.09
2023-04-19T05:41:16.932Z,64.32
2023-04-19T05:44:21.096Z,64.10
2023-04-19T05:47:24.171Z,64.41
2023-04-19T05:50:27.173Z,63.88
2023-04-19T05:53:29.782Z,63.16
2023-04-19T05:56:32.623Z,62.04
2023-04-19T05:59:36.718Z,61.84
2023-04-19T06:02:39.521Z,62.79
2023-04-19T06:05:42.565Z,63.32
2023-04-19T06:08:45.265Z,61.55
2023-04-19T06:11:51.170Z,60.36
2023-04-19T06:14:56.072Z,60.56
2023-04-19T06:17:59.984Z,61.06
2023-04-19T06:21:02.693Z,59.77
2023-04-19T06:24:06.894Z,59.21
2023-04-19T06:27:09.499Z,58.85
2023-04-19T06:30:14.030Z,57.44
2023-04-19T06:33:16.692Z,58.55
2023-04-19T06:36:19.470Z,58.08
2023-04-19T06:39:22.197Z,57.27
2023-04-19T06:42:25.942Z,57.92
2023-04-19T06:45:30.004Z,57.39
2023-04-19T06:48:32.877Z,57.67
2023-04-19T06:51:36.011Z,56.98
2023-04-19T06:54:38.852Z,56.38
2023-04-19T06:57:42.486Z,55.99
2023-04-19T07:00:46.395Z,55.16
2023-04-19T07:03:49.159Z,53.93
2023-04-19T07:06:51.930Z,53.23
2023-04-19T07:09:54.499Z,52.62
2023-04-19T07:12:57.231Z,52.81
2023-04-19T07:16:01.255Z,54.81
2023-04-19T07:19:03.921Z,54.09
2023-04-19T07:22:07.354Z,53.70
2023-04-19T07:25:11.011Z,51.59
2023-04-19T07:28:13.880Z,51.00
2023-04-19T07:31:18.404Z,49.82
2023-04-19T07:34:21.059Z,49.47
2023-04-19T07:37:23.810Z,49.88
2023-04-19T07:40:26.590Z,50.13
2023-04-19T07:43:30.960Z,50.71
2023-04-19T07:46:35.033Z,49.77
2023-04-19T07:49:38.490Z,49.92
2023-04-19T07:52:41.197Z,48.58
2023-04-19T07:55:43.718Z,47.44
2023-04-19T07:58:50.774Z,46.82
2023-04-19T08:02:00.965Z,48.26
2023-04-19T08:05:04.341Z,50.07
2023-04-19T08:08:07.042Z,49.02
2023-04-19T08:11:09.746Z,49.32
2023-04-19T08:14:22.181Z,49.00
2023-04-19T08:17:41.877Z,47.68
2023-04-19T08:20:46.553Z,45.21
2023-04-19T08:23:49.812Z,44.48
2023-04-19T08:26:54.724Z,44.41
2023-04-19T08:29:57.397Z,43.22
2023-04-19T08:33:01.825Z,44.05
2023-04-19T08:36:05.051Z,45.07
2023-04-19T08:39:14.721Z,44.43
2023-04-19T08:42:33.143Z,42.92
2023-04-19T08:45:39.183Z,43.14
2023-04-19T08:48:45.102Z,44.00
2023-04-19T08:51:49.352Z,43.64
2023-04-19T08:54:52.533Z,42.10
2023-04-19T08:57:55.254Z,41.78
2023-04-19T09:00:59.788Z,41.34
2023-04-19T09:04:21.697Z,42.34
2023-04-19T09:07:29.615Z,41.41
2023-04-19T09:10:32.481Z,40.06
2023-04-19T09:13:36.857Z,39.05
2023-04-19T09:16:39.545Z,37.86
2023-04-19T09:19:50.541Z,37.88
2023-04-19T09:23:04.851Z,39.23
2023-04-19T09:26:22.682Z,39.25
2023-04-19T09:29:26.994Z,39.68
2023-04-19T09:32:29.920Z,42.33
2023-04-19T09:35:44.368Z,43.08
2023-04-19T09:38:48.747Z,42.68
2023-04-19T09:41:52.765Z,41.93
2023-04-19T09:48:07.420Z,40.57
2023-04-19T09:51:14.458Z,39.64
2023-04-19T09:54:18.727Z,40.23
2023-04-19T09:57:21.359Z,40.75
2023-04-19T10:00:24.512Z,38.81
2023-04-19T10:03:30.398Z,37.64
2023-04-19T10:06:58.443Z,37.49
2023-04-19T10:10:11.706Z,37.01
2023-04-19T10:13:25.766Z,35.28
2023-04-19T10:16:31.581Z,36.93
2023-04-19T10:19:36.207Z,37.89
2023-04-19T10:22:40.393Z,36.11
2023-04-19T10:25:47.266Z,37.21
2023-04-19T10:28:49.885Z,36.54
2023-04-19T10:31:52.523Z,37.15
2023-04-19T10:34:55.352Z,37.57
2023-04-19T10:38:07.820Z,38.31
2023-04-19T10:41:16.511Z,40.03
2023-04-19T10:44:20.544Z,40.54
2023-04-19T10:47:44.481Z,41.36
2023-04-19T10:50:59.330Z,43.46
2023-04-19T10:54:04.521Z,44.96
2023-04-19T10:57:08.321Z,46.74
2023-04-19T11:00:21.114Z,46.08
2023-04-19T11:03:54.782Z,44.20
2023-04-19T11:07:02.634Z,42.84
2023-04-19T11:10:07.676Z,41.18
2023-04-19T11:13:10.245Z,40.91
2023-04-19T11:16:13.055Z,42.83
2023-04-19T11:19:16.673Z,45.27
2023-04-19T11:22:19.577Z,47.38
2023-04-19T11:25:23.687Z,48.72
2023-04-19T11:28:26.354Z,49.67
2023-04-19T11:31:29.423Z,50.68
2023-04-19T11:34:36.736Z,53.11
2023-04-19T11:37:40.550Z,52.75
2023-04-19T11:40:44.505Z,54.07
2023-04-19T11:43:48.470Z,54.24
2023-04-19T11:47:01.410Z,54.48
2023-04-19T11:50:33.145Z,54.61
2023-04-19T11:53:35.841Z,55.65
2023-04-19T11:56:58.955Z,55.46
2023-04-19T12:00:08.453Z,58.07
2023-04-19T12:03:11.743Z,59.64
2023-04-19T12:06:16.258Z,63.84
2023-04-19T12:09:24.068Z,64.46
2023-04-19T12:12:34.623Z,66.17
2023-04-19T12:15:43.667Z,66.70
2023-04-19T12:18:49.853Z,66.93
2023-04-19T12:21:52.656Z,66.83
2023-04-19T12:24:55.977Z,67.98
2023-04-19T12:28:00.290Z,68.67
2023-04-19T12:31:03.219Z,69.02
2023-04-19T12:34:05.919Z,69.00
2023-04-19T12:37:08.490Z,69.55
2023-04-19T12:40:12.416Z,69.81
2023-04-19T12:43:16.464Z,69.34
2023-04-19T12:46:19.262Z,69.57
2023-04-19T12:49:22.275Z,68.86
2023-04-19T12:52:25.302Z,67.26
2023-04-19T12:55:28.278Z,66.26
2023-04-19T12:58:32.316Z,66.20
2023-04-19T13:01:35.192Z,65.52
2023-04-19T13:04:37.948Z,64.61
2023-04-19T13:07:40.872Z,64.22
2023-04-19T13:10:43.501Z,63.86
2023-04-19T13:13:47.490Z,63.78
2023-04-19T13:16:50.263Z,64.00
2023-04-19T13:19:52.952Z,63.44
2023-04-19T13:22:55.834Z,62.59
2023-04-19T13:25:58.632Z,64.28
2023-04-19T13:29:02.648Z,62.79
2023-04-19T13:32:07.565Z,61.65
2023-04-19T13:35:10.991Z,59.41
2023-04-19T13:38:13.719Z,58.79
2023-04-19T13:41:16.341Z,59.30
2023-04-19T13:44:20.316Z,59.63
2023-04-19T13:47:23.026Z,58.38
2023-04-19T13:50:25.676Z,57.57
2023-04-19T13:53:29.535Z,57.93
2023-04-19T13:56:32.241Z,58.81
2023-04-19T13:59:36.343Z,58.28
2023-04-19T14:02:39.443Z,56.53
2023-04-19T14:05:42.199Z,55.25
2023-04-19T14:08:44.960Z,53.48
2023-04-19T14:11:48.893Z,50.81
2023-04-19T14:14:52.857Z,48.17
2023-04-19T14:17:55.707Z,48.01
2023-04-19T14:20:58.534Z,45.61
2023-04-19T14:24:01.428Z,44.13
2023-04-19T14:27:11.213Z,41.08
2023-04-19T14:30:16.157Z,37.17
2023-04-19T14:33:18.924Z,39.27
2023-04-19T14:36:21.609Z,35.93
2023-04-19T14:39:24.151Z,35.82
2023-04-19T14:42:26.859Z,36.52
2023-04-19T14:45:31.067Z,39.24
2023-04-19T14:48:33.790Z,42.11
2023-04-19T14:51:36.653Z,45.28
2023-04-19T14:54:39.362Z,47.94
2023-04-19T14:57:42.293Z,50.21
2023-04-19T15:00:46.451Z,52.02
2023-04-19T15:03:49.728Z,52.30
2023-04-19T15:06:52.547Z,53.02
2023-04-19T15:09:55.255Z,52.27
2023-04-19T15:12:57.972Z,51.23
2023-04-19T15:16:03.784Z,50.43
2023-04-19T15:19:07.498Z,49.76
2023-04-19T15:22:10.370Z,49.50
2023-04-19T15:25:12.996Z,47.58
2023-04-19T15:28:15.728Z,46.99
2023-04-19T15:31:19.904Z,47.15
2023-04-19T15:34:22.565Z,48.07
2023-04-19T15:37:25.579Z,47.46
2023-04-19T15:40:29.973Z,44.33
2023-04-19T15:43:32.634Z,41.50
2023-04-19T15:46:36.759Z,35.69
2023-04-19T15:49:40.600Z,25.66
2023-04-19T15:52:43.167Z,29.74
2023-04-19T15:55:46.924Z,33.38
2023-04-19T15:58:49.525Z,32.47
2023-04-19T16:01:53.621Z,32.08
2023-04-19T16:04:56.366Z,34.78
2023-04-19T16:08:03.492Z,37.46
2023-04-19T16:11:06.896Z,39.25
2023-04-19T16:14:09.403Z,38.31
2023-04-19T16:17:13.324Z,36.51
2023-04-19T16:20:15.896Z,38.52
2023-04-19T16:23:18.490Z,38.55
2023-04-19T16:26:22.169Z,33.16
2023-04-19T16:29:24.897Z,28.88
2023-04-19T16:32:29.048Z,27.97
2023-04-19T16:35:31.799Z,27.43
2023-04-19T16:38:34.428Z,28.41
2023-04-19T16:41:37.055Z,31.12
2023-04-19T16:44:39.599Z,33.30
2023-04-19T16:47:45.893Z,31.90
2023-04-19T16:50:49.703Z,29.95
2023-04-19T16:53:53.135Z,32.34
2023-04-19T16:56:55.763Z,34.71
2023-04-19T16:59:58.510Z,37.38
2023-04-19T17:03:02.675Z,38.36
2023-04-19T17:06:05.694Z,39.93
2023-04-19T17:09:08.355Z,41.77
2023-04-19T17:12:11.668Z,42.50
2023-04-19T17:15:14.307Z,43.24
2023-04-19T17:18:18.647Z,43.37
2023-04-19T17:21:21.256Z,44.35
2023-04-19T17:24:24.093Z,44.36
2023-04-19T17:27:26.612Z,43.67
2023-04-19T17:30:29.264Z,45.20
2023-04-19T17:33:33.278Z,45.76
2023-04-19T17:36:35.832Z,46.67
2023-04-19T17:39:38.316Z,47.75
2023-04-19T17:42:40.841Z,48.03
2023-04-19T17:45:43.457Z,49.99
2023-04-19T17:48:47.468Z,52.04
2023-04-19T17:51:50.192Z,53.02
2023-04-19T17:54:52.767Z,54.58
2023-04-19T17:57:55.563Z,49.46
2023-04-19T18:00:58.039Z,50.25
2023-04-19T18:04:02.052Z,48.94
2023-04-19T18:07:04.878Z,49.82
2023-04-19T18:10:08.284Z,45.98
2023-04-19T18:13:11.069Z,41.47
2023-04-19T18:16:13.909Z,40.14
2023-04-19T18:19:17.915Z,39.05
2023-04-19T18:22:20.853Z,38.81
2023-04-19T18:25:23.628Z,39.02
2023-04-19T18:28:26.239Z,38.63
2023-04-19T18:31:31.346Z,39.09
2023-04-19T18:34:35.746Z,39.33
2023-04-19T18:37:38.509Z,39.27
2023-04-19T18:40:41.284Z,39.49
2023-04-19T18:43:59.550Z,40.81
2023-04-19T18:47:07.113Z,41.20
2023-04-19T18:50:12.042Z,41.14
2023-04-19T18:53:14.684Z,41.70
2023-04-19T18:56:17.203Z,41.90
2023-04-19T18:59:21.033Z,42.04
2023-04-19T19:02:23.868Z,42.09
2023-04-19T19:05:28.740Z,42.62
2023-04-19T19:08:31.687Z,42.56
2023-04-19T19:11:52.021Z,42.51
2023-04-19T19:14:56.973Z,42.78
2023-04-19T19:17:59.540Z,43.63
2023-04-19T19:21:03.457Z,43.82
2023-04-19T19:24:06.709Z,44.34
2023-04-19T19:27:09.514Z,44.05
2023-04-19T19:30:12.997Z,44.19
2023-04-19T19:33:16.353Z,44.33
2023-04-19T19:36:20.452Z,45.97
2023-04-19T19:39:23.109Z,48.52
2023-04-19T19:42:25.783Z,48.16
2023-04-19T19:45:28.767Z,49.47
2023-04-19T19:48:36.949Z,50.60
2023-04-19T19:51:57.843Z,50.65
2023-04-19T19:55:01.863Z,51.03
2023-04-19T20:01:11.223Z,52.40
2023-04-19T20:04:14.043Z,52.25
2023-04-19T20:07:36.823Z,53.04
2023-04-19T20:10:42.901Z,51.57
2023-04-19T20:13:45.726Z,52.33
2023-04-19T20:16:48.701Z,53.17
2023-04-19T20:19:52.144Z,53.01
2023-04-19T20:22:56.178Z,53.50
2023-04-19T20:25:59.784Z,53.54
2023-04-19T20:29:02.674Z,53.90
2023-04-19T20:32:05.679Z,54.51
2023-04-19T20:35:11.958Z,54.95
2023-04-19T20:38:16.146Z,54.90
2023-04-19T20:41:19.291Z,55.59
2023-04-19T20:44:22.865Z,55.37
2023-04-19T20:47:25.698Z,56.17
2023-04-19T20:50:28.292Z,56.52
2023-04-19T20:53:32.212Z,56.33
2023-04-19T20:56:34.834Z,56.15
2023-04-19T20:59:37.376Z,57.02
2023-04-19T21:02:40.100Z,57.56
2023-04-19T21:05:42.786Z,57.70
2023-04-19T21:08:46.763Z,57.93
2023-04-19T21:11:49.442Z,58.08
2023-04-19T21:14:52.869Z,57.97
2023-04-19T21:17:55.471Z,57.95
2023-04-19T21:20:58.109Z,57.80
2023-04-19T21:24:02.089Z,57.81
2023-04-19T21:27:05.136Z,58.24
2023-04-19T21:30:09.183Z,59.05
2023-04-19T21:33:12.005Z,59.05
2023-04-19T21:36:14.563Z,59.53
2023-04-19T21:39:18.784Z,59.89
2023-04-19T21:42:22.148Z,59.88
2023-04-19T21:45:25.026Z,60.26
2023-04-19T21:48:27.671Z,60.27
2023-04-19T21:51:30.257Z,60.58
2023-04-19T21:54:34.859Z,60.19
2023-04-19T21:57:38.301Z,60.51
2023-04-19T22:00:41.245Z,60.28
2023-04-19T22:03:45.525Z,60.43
2023-04-19T22:06:48.251Z,60.26
2023-04-19T22:09:52.275Z,60.83
2023-04-19T22:12:58.675Z,60.91
2023-04-19T22:16:02.405Z,61.38
2023-04-19T22:19:05.357Z,61.30
2023-04-19T22:22:07.948Z,60.70
2023-04-19T22:25:12.030Z,60.95
2023-04-19T22:28:14.617Z,61.84
2023-04-19T22:31:17.120Z,61.50
2023-04-19T22:34:19.662Z,61.09
2023-04-19T22:37:22.251Z,61.74
2023-04-19T22:40:26.253Z,61.05
2023-04-19T22:43:28.877Z,61.00
2023-04-19T22:46:32.911Z,61.37
2023-04-19T22:49:35.568Z,61.47
2023-04-19T22:52:38.388Z,61.58
2023-04-19T22:55:42.732Z,61.34
2023-04-19T22:58:45.367Z,61.29
2023-04-19T23:01:48.053Z,60.67
2023-04-19T23:04:50.917Z,61.18
2023-04-19T23:07:53.457Z,62.73
2023-04-19T23:10:57.485Z,61.63
2023-04-19T23:14:00.032Z,60.79
2023-04-19T23:17:03.100Z,61.02
2023-04-19T23:20:09.442Z,60.63
2023-04-19T23:23:11.978Z,60.58
2023-04-19T23:26:15.994Z,59.42
2023-04-19T23:29:18.790Z,60.02
2023-04-19T23:32:21.623Z,60.82
2023-04-19T23:35:24.367Z,60.90
2023-04-19T23:38:26.928Z,61.73
2023-04-19T23:41:30.797Z,62.58
2023-04-19T23:44:33.189Z,62.26
2023-04-19T23:47:35.847Z,62.70
2023-04-19T23:50:38.327Z,63.43
2023-04-19T23:53:41.213Z,63.89
2023-04-19T23:56:45.359Z,63.83
2023-04-19T23:59:47.918Z,64.17
